Time;durP1;ratioP1;P1;durP2;ratioP2;P2;SDS_P1;SDS_P2;PMS_P1;PMS_P2;Temp;Humidity;BMP_temperature;BMP_pressure;BME280_temperature;BME280_humidity;BME280_pressure;Samples;Min_cycle;Max_cycle;Signal;HPM_P1;HPM_P2
2022/09/16 00:01:44;;;;;;;5.10;3.10;;;;;;;15.97;96.44;98865.39;1628024;88;21051;-74
2022/09/16 00:04:13;;;;;;;3.72;2.70;;;;;;;15.93;96.48;98865.65;1629638;88;21090;-73
2022/09/16 00:06:42;;;;;;;4.15;3.30;;;;;;;15.90;96.58;98856.52;1629639;88;22204;-74
2022/09/16 00:09:11;;;;;;;4.58;3.22;;;;;;;15.85;96.72;98856.50;1629701;87;21051;-73
2022/09/16 00:11:41;;;;;;;4.75;3.25;;;;;;;15.82;96.94;98851.52;1629792;87;21122;-74
2022/09/16 00:14:09;;;;;;;3.58;2.75;;;;;;;15.78;97.23;98853.99;1629739;87;21051;-74
2022/09/16 00:16:39;;;;;;;4.60;3.33;;;;;;;15.79;97.46;98860.34;1629711;88;21821;-74
2022/09/16 00:19:08;;;;;;;5.53;4.00;;;;;;;15.78;97.54;98860.89;1629803;87;21095;-73
2022/09/16 00:21:38;;;;;;;8.03;4.05;;;;;;;15.75;97.69;98854.53;1629706;88;21083;-75
2022/09/16 00:24:07;;;;;;;4.85;3.72;;;;;;;15.74;97.89;98846.52;1629816;88;21059;-74
2022/09/16 00:26:38;;;;;;;5.25;3.72;;;;;;;15.73;97.96;98844.85;1629738;88;21502;-74
2022/09/16 00:29:07;;;;;;;4.75;3.72;;;;;;;15.71;98.07;98839.59;1629688;87;21455;-74
2022/09/16 00:31:37;;;;;;;6.90;3.35;;;;;;;15.71;98.19;98836.84;1629735;88;21079;-74
2022/09/16 00:34:06;;;;;;;5.20;3.35;;;;;;;15.72;98.30;98840.43;1629796;88;21039;-74
2022/09/16 00:36:35;;;;;;;3.58;2.95;;;;;;;15.71;98.38;98840.15;1629696;87;21047;-74
2022/09/16 00:39:04;;;;;;;6.15;3.50;;;;;;;15.71;98.41;98853.95;1629784;87;21099;-73
2022/09/16 00:41:36;;;;;;;4.15;3.60;;;;;;;15.69;98.47;98856.98;1629788;87;21019;-74
2022/09/16 00:44:26;;;;;;;3.80;3.30;;;;;;;15.70;98.62;98857.27;1630101;88;21059;-73
2022/09/16 00:46:55;;;;;;;3.95;3.25;;;;;;;15.70;98.61;98850.36;1629792;87;21341;-72
2022/09/16 00:49:28;;;;;;;4.05;3.10;;;;;;;15.72;98.58;98855.61;1629891;87;21007;-74
2022/09/16 00:52:01;;;;;;;3.02;2.67;;;;;;;15.72;98.55;98859.20;1604386;87;21095;-73
2022/09/16 00:54:30;;;;;;;4.55;3.52;;;;;;;15.71;98.48;98856.72;1629801;88;21536;-71
2022/09/16 00:56:59;;;;;;;4.53;3.45;;;;;;;15.70;98.38;98863.34;1629665;87;21557;-73
2022/09/16 00:59:32;;;;;;;6.35;3.70;;;;;;;15.66;98.37;98866.36;1629843;88;21076;-74
2022/09/16 01:02:07;;;;;;;4.05;3.37;;;;;;;15.66;98.46;98868.56;1629758;88;21138;-71
2022/09/16 01:04:59;;;;;;;5.25;3.60;;;;;;;15.64;98.31;98869.94;1629626;87;21134;-71
2022/09/16 01:07:45;;;;;;;4.08;3.40;;;;;;;15.61;98.26;98867.16;1623228;88;21088;-73
2022/09/16 01:10:17;;;;;;;7.92;3.25;;;;;;;15.58;98.38;98868.22;1629690;88;21016;-72
2022/09/16 01:12:59;;;;;;;5.15;4.10;;;;;;;15.58;98.41;98880.63;1629804;87;21474;-72
2022/09/16 01:16:01;;;;;;;6.10;4.45;;;;;;;15.57;98.49;98884.47;1629823;88;21047;-73
2022/09/16 01:18:48;;;;;;;7.37;4.10;;;;;;;15.54;98.52;98883.90;1622968;88;21059;-72
2022/09/16 01:21:25;;;;;;;6.33;3.67;;;;;;;15.53;98.63;98889.69;1620592;88;21576;-71
2022/09/16 01:24:16;;;;;;;;;;;;;;;15.49;98.63;98883.88;1632124;88;21046;-71
2022/09/16 01:27:23;;;;;;;5.37;3.70;;;;;;;15.47;98.78;98886.61;1629923;87;20163;-74
2022/09/16 01:30:35;;;;;;;5.25;4.00;;;;;;;15.45;99.06;98879.98;1626363;88;21094;-72
2022/09/16 01:33:24;;;;;;;5.47;4.25;;;;;;;15.49;99.15;98884.42;1629720;87;21476;-72
2022/09/16 01:36:14;;;;;;;8.05;5.00;;;;;;;15.48;99.07;98884.97;1629904;88;21078;-72
2022/09/16 01:39:09;;;;;;;8.23;4.85;;;;;;;15.46;99.07;98887.16;1623885;88;21118;-72
2022/09/16 01:41:52;;;;;;;8.33;4.90;;;;;;;15.42;99.17;98883.27;1592277;88;21083;-72
2022/09/16 01:44:30;;;;;;;8.20;5.08;;;;;;;15.41;99.31;98892.66;1620071;88;21103;-71
2022/09/16 01:47:22;;;;;;;6.47;4.72;;;;;;;15.41;99.57;98894.58;1629690;87;21103;-73
2022/09/16 01:49:59;;;;;;;5.97;4.67;;;;;;;15.42;99.68;98905.36;1629767;88;21523;-73
2022/09/16 01:52:46;;;;;;;5.75;4.20;;;;;;;15.42;99.82;98913.63;1612186;88;21035;-73
2022/09/16 01:55:26;;;;;;;7.00;5.10;;;;;;;15.45;99.89;98915.03;1629812;88;21127;-73
2022/09/16 01:58:34;;;;;;;9.15;5.50;;;;;;;15.44;99.91;98906.47;1627205;87;21072;-74
2022/09/16 02:01:09;;;;;;;8.23;5.00;;;;;;;15.42;99.96;98911.42;1625979;88;21092;-72
2022/09/16 02:03:39;;;;;;;7.05;5.50;;;;;;;15.41;99.99;98916.11;1629844;88;21064;-72
2022/09/16 02:06:10;;;;;;;8.10;4.80;;;;;;;15.41;100.00;98920.80;1629725;88;21094;-71
2022/09/16 02:09:03;;;;;;;7.05;4.58;;;;;;;15.39;100.00;98905.89;1629756;88;21435;-71
2022/09/16 02:11:34;;;;;;;6.35;5.03;;;;;;;15.40;100.00;98897.06;1616403;88;21052;-72
2022/09/16 02:14:15;;;;;;;8.13;5.37;;;;;;;15.41;100.00;98899.55;1604980;88;21051;-72
2022/09/16 02:17:10;;;;;;;8.23;5.40;;;;;;;15.42;100.00;98893.48;1629854;88;21098;-71
2022/09/16 02:19:58;;;;;;;8.73;4.75;;;;;;;15.44;100.00;98902.33;1629705;87;21080;-71
2022/09/16 02:22:32;;;;;;;6.83;5.17;;;;;;;15.42;99.88;98901.22;1629847;87;21050;-71
2022/09/16 02:25:03;;;;;;;7.55;4.58;;;;;;;15.38;99.72;98900.62;1629710;88;21132;-71
2022/09/16 02:27:33;;;;;;;8.55;5.10;;;;;;;15.36;99.70;98908.34;1605129;88;21126;-72
2022/09/16 02:30:10;;;;;;;6.72;4.70;;;;;;;15.33;99.63;98911.09;1602970;88;21115;-71
2022/09/16 02:32:45;;;;;;;5.67;4.58;;;;;;;15.34;99.60;98905.85;1619225;88;21086;-72
2022/09/16 02:35:17;;;;;;;7.42;4.87;;;;;;;15.33;99.52;98904.73;1629780;88;21092;-72
2022/09/16 02:37:57;;;;;;;6.10;4.65;;;;;;;15.36;99.43;98905.59;1620525;86;21530;-74
2022/09/16 02:40:46;;;;;;;8.83;4.28;;;;;;;15.36;99.26;98910.55;1629638;87;21126;-72
2022/09/16 02:43:17;;;;;;;6.47;4.87;;;;;;;15.36;99.12;98902.28;1629933;88;21051;-71
2022/09/16 02:45:58;;;;;;;7.03;4.60;;;;;;;15.33;98.97;98912.47;1619820;88;21096;-70
2022/09/16 02:48:45;;;;;;;6.15;4.55;;;;;;;15.32;98.93;98914.11;1629813;87;21047;-71
2022/09/16 02:51:55;;;;;;;6.03;4.62;;;;;;;15.28;98.75;98911.05;1629511;88;21457;-71
2022/09/16 02:54:52;;;;;;;7.25;4.80;;;;;;;15.26;98.63;98911.86;1629756;87;21103;-71
2022/09/16 02:57:22;;;;;;;5.67;4.70;;;;;;;15.24;98.63;98905.78;1625250;88;21063;-74
2022/09/16 02:59:51;;;;;;;5.03;4.20;;;;;;;15.22;98.48;98904.66;1619665;88;21083;-72
2022/09/16 03:02:21;;;;;;;6.85;5.03;;;;;;;15.25;98.48;98903.85;1629990;88;21063;-73
2022/09/16 03:04:51;;;;;;;6.72;4.78;;;;;;;15.28;98.31;98909.67;1629616;88;21063;-71
2022/09/16 03:07:20;;;;;;;5.50;4.30;;;;;;;15.29;98.14;98912.72;1629705;88;21052;-70
2022/09/16 03:09:49;;;;;;;7.12;4.55;;;;;;;15.30;97.98;98917.69;1629815;87;21130;-71
2022/09/16 03:12:44;;;;;;;6.08;4.08;;;;;;;15.30;97.80;98911.62;1629791;88;21095;-72
2022/09/16 03:15:48;;;;;;;7.80;5.28;;;;;;;15.29;97.73;98914.09;1629733;88;21072;-70
2022/09/16 03:18:24;;;;;;;7.03;4.60;;;;;;;15.27;97.54;98916.28;1618336;88;21199;-69
2022/09/16 03:21:23;;;;;;;5.92;4.33;;;;;;;15.25;97.45;98911.58;1628543;87;21624;-72
2022/09/16 03:24:14;;;;;;;7.45;4.58;;;;;;;15.24;97.36;98922.33;1629719;87;21047;-70
2022/09/16 03:27:00;;;;;;;8.58;4.65;;;;;;;15.20;97.22;98920.66;1629620;88;21066;-70
2022/09/16 03:29:41;;;;;;;6.05;4.17;;;;;;;15.19;97.14;98927.27;1629993;88;21091;-70
2022/09/16 03:32:20;;;;;;;5.33;3.98;;;;;;;15.17;97.08;98928.08;1629556;88;21103;-70
2022/09/16 03:34:57;;;;;;;7.72;4.58;;;;;;;15.14;96.92;98923.09;1630070;88;21035;-68
2022/09/16 03:37:30;;;;;;;6.22;4.08;;;;;;;15.12;96.87;98918.92;1632364;88;21015;-69
2022/09/16 03:39:59;;;;;;;6.60;4.12;;;;;;;15.12;96.90;98915.62;1633084;88;21392;-67
2022/09/16 03:42:29;;;;;;;6.25;4.80;;;;;;;15.11;97.02;98908.98;1605393;88;21111;-68
2022/09/16 03:44:59;;;;;;;8.98;4.78;;;;;;;15.09;97.20;98900.98;1629479;88;21106;-68
2022/09/16 03:47:29;;;;;;;5.85;4.53;;;;;;;15.10;97.54;98896.29;1630019;88;21047;-69
2022/09/16 03:49:59;;;;;;;5.78;4.40;;;;;;;15.10;97.79;98903.19;1629609;88;21043;-68
2022/09/16 03:52:29;;;;;;;6.12;4.65;;;;;;;15.11;97.78;98908.98;1629787;88;21063;-70
2022/09/16 03:54:58;;;;;;;6.62;4.80;;;;;;;15.11;97.88;98907.61;1629721;88;21127;-70
2022/09/16 03:57:29;;;;;;;6.67;4.85;;;;;;;15.12;98.06;98911.48;1629832;87;21102;-71
2022/09/16 03:59:59;;;;;;;5.72;4.85;;;;;;;15.10;97.99;98920.57;1629795;88;21119;-73
2022/09/16 04:02:30;;;;;;;6.72;4.70;;;;;;;15.03;98.19;98923.27;1629895;88;21070;-72
2022/09/16 04:04:59;;;;;;;5.72;4.47;;;;;;;14.97;98.41;98929.28;1629815;88;21063;-71
2022/09/16 04:07:28;;;;;;;6.05;4.28;;;;;;;14.94;98.62;98924.27;1629871;87;21107;-72
2022/09/16 04:09:57;;;;;;;6.80;4.20;;;;;;;14.95;98.75;98924.55;1629664;87;21087;-73
2022/09/16 04:12:26;;;;;;;5.40;3.90;;;;;;;14.95;98.87;98922.34;1629768;88;21036;-73
2022/09/16 04:14:56;;;;;;;6.75;4.40;;;;;;;14.95;98.90;98920.95;1629788;88;21015;-73
2022/09/16 04:17:31;;;;;;;9.68;4.72;;;;;;;14.97;99.03;98924.31;1629023;88;21071;-73
2022/09/16 04:20:01;;;;;;;6.72;4.15;;;;;;;14.98;99.02;98937.02;1629738;87;21118;-73
2022/09/16 04:22:30;;;;;;;6.72;4.70;;;;;;;14.96;99.05;98945.55;1629721;88;22198;-73
2022/09/16 04:25:00;;;;;;;6.37;4.10;;;;;;;14.98;99.11;98956.31;1629741;88;21091;-73
2022/09/16 04:27:30;;;;;;;7.90;4.15;;;;;;;14.98;99.15;98953.02;1616549;87;21051;-72
2022/09/16 04:29:59;;;;;;;8.45;5.75;;;;;;;14.99;99.14;98953.84;1604988;88;21063;-73
2022/09/16 04:32:28;;;;;;;6.80;5.03;;;;;;;14.95;99.21;98935.58;1629896;88;21023;-74
2022/09/16 04:34:57;;;;;;;5.40;4.35;;;;;;;14.96;99.35;98945.55;1629666;87;21487;-71
2022/09/16 04:37:28;;;;;;;7.28;4.65;;;;;;;14.97;99.32;98957.41;1629718;88;21019;-72
2022/09/16 04:39:58;;;;;;;5.65;4.12;;;;;;;14.97;99.38;98959.63;1599601;86;21133;-71
2022/09/16 04:42:29;;;;;;;7.37;5.08;;;;;;;14.99;99.46;98961.57;1652423;86;21043;-72
2022/09/16 04:44:59;;;;;;;5.92;4.30;;;;;;;15.02;99.39;98968.49;1612330;87;21071;-71
2022/09/16 04:47:28;;;;;;;7.22;5.15;;;;;;;15.02;99.34;98961.59;1644379;86;21050;-73
2022/09/16 04:49:57;;;;;;;9.73;5.40;;;;;;;15.01;99.32;98961.31;1648042;86;21023;-71
2022/09/16 04:52:29;;;;;;;7.67;5.20;;;;;;;14.99;99.37;98958.81;1652304;85;21467;-70
2022/09/16 04:54:58;;;;;;;6.05;4.00;;;;;;;15.01;99.36;98961.31;1633531;86;21205;-72
2022/09/16 04:57:31;;;;;;;6.65;5.10;;;;;;;15.00;99.18;98972.89;1645590;86;21059;-71
2022/09/16 05:00:02;;;;;;;6.62;4.90;;;;;;;14.98;99.12;98972.32;1650608;86;21118;-70
2022/09/16 05:02:33;;;;;;;6.70;4.72;;;;;;;14.96;99.08;98966.23;1644096;86;21102;-71
2022/09/16 05:05:03;;;;;;;6.33;4.45;;;;;;;14.98;99.16;98977.00;1640695;86;21071;-70
2022/09/16 05:07:34;;;;;;;7.00;4.75;;;;;;;14.97;99.09;98993.27;1641244;86;21524;-70
2022/09/16 05:10:04;;;;;;;5.47;4.10;;;;;;;14.98;99.20;98988.04;1652087;86;21098;-72
2022/09/16 05:12:34;;;;;;;8.53;4.35;;;;;;;14.99;99.24;98989.70;1640881;86;21162;-71
2022/09/16 05:15:08;;;;;;;6.67;4.72;;;;;;;15.01;99.26;98994.41;1642999;85;21138;-72
2022/09/16 05:17:38;;;;;;;6.40;4.58;;;;;;;15.03;99.17;98992.22;1654197;86;21090;-72
2022/09/16 05:20:13;;;;;;;6.72;4.58;;;;;;;15.04;99.23;98985.61;1632032;86;21094;-73
2022/09/16 05:22:41;;;;;;;14.05;5.42;;;;;;;15.05;99.27;98981.21;1652492;86;21051;-74
2022/09/16 05:25:10;;;;;;;9.85;5.17;;;;;;;15.08;99.30;98986.20;1630373;87;21118;-72
2022/09/16 05:27:40;;;;;;;7.05;4.58;;;;;;;15.10;99.26;98992.84;1650662;86;21106;-73
2022/09/16 05:30:13;;;;;;;9.50;4.72;;;;;;;15.12;99.41;98989.27;1653526;86;21102;-73
2022/09/16 05:32:43;;;;;;;7.85;3.92;;;;;;;15.15;99.32;98990.13;1650296;86;21091;-73
2022/09/16 05:35:12;;;;;;;11.38;5.58;;;;;;;15.18;99.14;98994.58;1642356;86;21130;-75
2022/09/16 05:37:41;;;;;;;11.60;5.87;;;;;;;15.21;98.98;98991.84;1660882;86;21035;-72
2022/09/16 05:40:10;;;;;;;8.48;4.65;;;;;;;15.24;98.99;98998.22;1638391;86;21131;-74
2022/09/16 05:42:40;;;;;;;9.08;6.05;;;;;;;15.27;98.75;99001.83;1633943;86;21070;-75
2022/09/16 05:45:09;;;;;;;8.98;5.20;;;;;;;15.29;98.52;99000.19;1645237;86;21081;-74
2022/09/16 05:47:39;;;;;;;6.30;4.33;;;;;;;15.30;98.37;99002.68;1633731;88;21047;-73
2022/09/16 05:50:08;;;;;;;7.53;4.62;;;;;;;15.32;98.16;99003.25;1633886;86;22011;-73
2022/09/16 05:52:38;;;;;;;8.75;5.00;;;;;;;15.32;97.88;99006.02;1623542;88;21094;-72
2022/09/16 05:55:08;;;;;;;6.72;4.55;;;;;;;15.32;97.66;99006.02;1645290;86;21063;-72
2022/09/16 05:57:39;;;;;;;9.03;4.95;;;;;;;15.35;97.76;99004.10;1634260;86;21122;-72
2022/09/16 06:00:11;;;;;;;9.30;6.47;;;;;;;15.41;97.79;99007.73;1633654;88;21118;-71
2022/09/16 06:02:42;;;;;;;7.62;4.95;;;;;;;15.43;97.73;99005.00;1633896;86;21055;-72
2022/09/16 06:05:12;;;;;;;9.48;5.17;;;;;;;15.49;97.81;99006.70;1642475;86;21134;-71
2022/09/16 06:07:43;;;;;;;8.35;5.60;;;;;;;15.53;97.62;99011.98;1638361;86;21559;-73
2022/09/16 06:10:13;;;;;;;8.28;5.55;;;;;;;15.58;97.37;99015.91;1641913;86;21088;-74
2022/09/16 06:12:42;;;;;;;7.00;5.42;;;;;;;15.57;97.22;98999.86;1645385;86;21059;-74
2022/09/16 06:15:12;;;;;;;7.25;5.70;;;;;;;15.63;97.08;98998.03;1633967;86;21042;-72
2022/09/16 06:17:42;;;;;;;8.00;5.60;;;;;;;15.66;96.88;98994.75;1633802;86;21067;-73
2022/09/16 06:20:13;;;;;;;7.80;5.30;;;;;;;15.71;96.93;99005.28;1638217;86;21177;-72
2022/09/16 06:22:42;;;;;;;8.58;5.37;;;;;;;15.76;96.90;99004.48;1633850;86;21045;-72
2022/09/16 06:25:12;;;;;;;11.85;6.12;;;;;;;15.81;96.68;99002.58;1635027;86;21103;-73
2022/09/16 06:27:44;;;;;;;9.20;5.37;;;;;;;15.90;96.65;99011.20;1633788;86;21517;-73
2022/09/16 06:30:14;;;;;;;8.38;5.12;;;;;;;15.93;96.34;99014.81;1633652;86;21095;-72
2022/09/16 06:32:44;;;;;;;7.55;5.20;;;;;;;15.99;96.15;99016.51;1655287;86;21071;-74
2022/09/16 06:35:13;;;;;;;6.35;4.83;;;;;;;16.02;95.82;99017.36;1634572;86;21059;-73
2022/09/16 06:37:42;;;;;;;10.70;6.03;;;;;;;16.05;95.34;99014.61;1642351;86;21046;-74
2022/09/16 06:40:12;;;;;;;9.98;6.22;;;;;;;16.08;95.28;99023.20;1609524;88;21288;-73
2022/09/16 06:42:41;;;;;;;7.75;5.50;;;;;;;16.15;95.34;99021.58;1627251;87;21084;-72
2022/09/16 06:45:12;;;;;;;7.55;5.33;;;;;;;16.22;95.32;99018.56;1627149;88;21130;-74
2022/09/16 06:47:43;;;;;;;6.75;5.55;;;;;;;16.31;95.28;99019.20;1627220;87;21047;-73
2022/09/16 06:50:12;;;;;;;7.62;5.33;;;;;;;16.41;95.03;99026.71;1627142;87;21044;-75
2022/09/16 06:52:41;;;;;;;7.25;5.53;;;;;;;16.49;94.50;99023.43;1627133;88;21083;-74
2022/09/16 06:55:10;;;;;;;11.70;5.83;;;;;;;16.54;93.95;99024.83;1627028;88;21055;-74
2022/09/16 06:57:39;;;;;;;12.80;6.40;;;;;;;16.59;93.65;99026.23;1616980;88;21064;-73
2022/09/16 07:00:11;;;;;;;7.28;5.70;;;;;;;16.65;93.68;99029.33;1627361;88;21122;-75
2022/09/16 07:02:40;;;;;;;8.38;5.70;;;;;;;16.71;93.23;99037.09;1627213;88;21063;-74
2022/09/16 07:05:12;;;;;;;8.73;5.90;;;;;;;16.69;92.01;99033.22;1627134;88;21239;-73
2022/09/16 07:07:43;;;;;;;9.88;5.85;;;;;;;16.63;90.76;99044.50;1627111;88;21121;-75
2022/09/16 07:10:12;;;;;;;7.78;5.67;;;;;;;16.56;90.63;99043.38;1627239;88;21063;-74
2022/09/16 07:12:41;;;;;;;8.18;5.85;;;;;;;16.54;90.62;99049.72;1627104;87;21059;-74
2022/09/16 07:15:11;;;;;;;8.15;5.83;;;;;;;16.51;90.42;99055.79;1627207;87;21253;-73
2022/09/16 07:17:40;;;;;;;7.55;5.83;;;;;;;16.51;90.42;99048.87;1627148;88;21495;-74
2022/09/16 07:20:10;;;;;;;8.53;5.87;;;;;;;16.52;90.48;99050.55;1618231;87;21059;-73
2022/09/16 07:22:39;;;;;;;9.03;5.47;;;;;;;16.54;90.41;99055.25;1627261;88;21047;-74
2022/09/16 07:25:10;;;;;;;9.60;5.35;;;;;;;16.60;90.45;99070.77;1626784;88;21052;-74
2022/09/16 07:27:43;;;;;;;9.50;5.35;;;;;;;16.66;90.42;99064.19;1627157;87;21076;-73
2022/09/16 07:30:12;;;;;;;8.63;5.95;;;;;;;16.72;90.05;99063.66;1627114;87;21063;-75
2022/09/16 07:32:41;;;;;;;10.75;5.95;;;;;;;16.76;89.62;99063.39;1627211;88;21075;-76
2022/09/16 07:35:10;;;;;;;10.78;5.92;;;;;;;16.81;89.16;99066.17;1601764;88;21091;-73
2022/09/16 07:37:41;;;;;;;8.75;5.37;;;;;;;16.87;88.92;99067.03;1627367;87;21095;-73
2022/09/16 07:40:12;;;;;;;11.28;5.78;;;;;;;16.90;88.64;99060.95;1629832;86;21142;-74
2022/09/16 07:42:42;;;;;;;13.45;6.47;;;;;;;16.98;88.64;99057.13;1634028;86;21066;-73
2022/09/16 07:45:12;;;;;;;8.85;5.78;;;;;;;17.06;88.71;99055.22;1635256;86;21031;-74
2022/09/16 07:47:43;;;;;;;9.85;5.90;;;;;;;17.18;88.72;99054.97;1655418;86;21082;-74
2022/09/16 07:50:12;;;;;;;9.80;5.50;;;;;;;17.33;88.28;99048.63;1649956;86;21085;-71
2022/09/16 07:52:41;;;;;;;7.53;5.67;;;;;;;17.47;87.20;99046.14;1650135;86;21135;-72
2022/09/16 07:55:11;;;;;;;8.43;5.30;;;;;;;17.64;86.41;99051.72;1638462;86;21066;-75
2022/09/16 07:57:40;;;;;;;6.67;4.30;;;;;;;17.75;85.28;99058.13;1646012;86;21087;-75
2022/09/16 08:00:11;;;;;;;7.45;4.70;;;;;;;17.82;84.73;99053.13;1641148;86;21134;-76
2022/09/16 08:02:41;;;;;;;8.45;4.05;;;;;;;17.89;84.19;99061.16;1644582;86;21102;-76
2022/09/16 08:05:10;;;;;;;6.75;4.17;;;;;;;17.95;83.72;99058.11;1633588;88;21083;-76
2022/09/16 08:07:41;;;;;;;8.50;4.35;;;;;;;17.98;83.23;99059.49;1637385;86;21066;-76
2022/09/16 08:10:10;;;;;;;5.42;4.08;;;;;;;18.02;82.07;99064.75;1633457;87;21106;-76
2022/09/16 08:12:38;;;;;;;8.90;4.95;;;;;;;18.05;81.55;99060.87;1635726;86;21051;-76
2022/09/16 08:15:10;;;;;;;5.53;3.83;;;;;;;18.11;80.31;99055.31;1633864;86;21095;-78
2022/09/16 08:17:41;;;;;;;6.03;4.00;;;;;;;18.14;79.43;99047.83;1633396;86;21083;-77
2022/09/16 08:20:09;;;;;;;9.23;4.15;;;;;;;18.21;79.42;99046.45;1639544;86;21489;-77
2022/09/16 08:22:38;;;;;;;7.33;3.90;;;;;;;18.31;79.42;99048.37;1647933;86;21043;-69
2022/09/16 08:25:08;;;;;;;5.35;3.50;;;;;;;18.43;78.57;99053.05;1623444;88;21059;-69
2022/09/16 08:27:37;;;;;;;7.10;3.25;;;;;;;18.67;77.42;99052.72;1633632;86;21066;-69
2022/09/16 08:30:09;;;;;;;5.28;3.87;;;;;;;19.01;75.60;99049.25;1633659;86;21466;-68
2022/09/16 08:32:39;;;;;;;4.58;3.00;;;;;;;19.33;74.46;99043.22;1642773;86;21095;-70
2022/09/16 08:35:10;;;;;;;11.03;3.90;;;;;;;19.60;72.37;99034.47;1636817;86;21090;-68
2022/09/16 08:37:40;;;;;;;6.80;3.70;;;;;;;19.73;69.95;99039.36;1633373;86;21491;-77
2022/09/16 08:40:16;;;;;;;6.08;3.42;;;;;;;19.78;68.86;99039.88;1633412;86;21099;-77
2022/09/16 08:43:01;;;;;;;;;;;;;;;19.75;66.54;99040.46;1636065;86;21148;-75
2022/09/16 08:45:37;;;;;;;8.80;3.83;;;;;;;19.70;66.50;99042.73;1644598;86;20184;-77
2022/09/16 08:48:35;;;;;;;8.93;3.98;;;;;;;19.74;66.43;99049.36;1633428;86;21531;-77
2022/09/16 08:51:05;;;;;;;8.50;4.03;;;;;;;19.87;66.84;99049.25;1633109;86;21079;-77
2022/09/16 08:53:55;;;;;;;10.13;4.12;;;;;;;19.97;66.35;99048.33;1633943;86;21310;-77
2022/09/16 08:56:26;;;;;;;7.17;3.92;;;;;;;20.01;66.17;99047.45;1582272;88;21083;-78
2022/09/16 08:59:00;;;;;;;4.25;3.55;;;;;;;19.99;65.89;99051.64;1633593;86;21501;-77
2022/09/16 09:01:53;;;;;;;7.67;3.87;;;;;;;19.95;65.42;99050.84;1633507;88;21079;-76
2022/09/16 09:04:23;;;;;;;5.62;3.60;;;;;;;19.90;66.12;99050.05;1604416;89;21043;-78
2022/09/16 09:07:25;;;;;;;7.10;4.17;;;;;;;19.87;66.47;99038.13;1604444;89;21071;-78
2022/09/16 09:10:00;;;;;;;9.45;3.92;;;;;;;19.89;67.21;99039.50;1604372;88;21113;-78
2022/09/16 09:12:39;;;;;;;12.60;5.17;;;;;;;19.99;67.70;99033.57;1669712;85;21072;-74
2022/09/16 09:15:37;;;;;;;8.13;4.72;;;;;;;20.09;67.01;99034.30;1625092;86;21090;-75
2022/09/16 09:18:29;;;;;;;7.33;3.40;;;;;;;20.19;66.77;99032.83;1647114;86;21079;-73
2022/09/16 09:21:24;;;;;;;5.95;3.37;;;;;;;20.24;65.82;99041.69;1654791;86;21170;-74
2022/09/16 09:24:22;;;;;;;6.08;3.37;;;;;;;20.25;64.76;99037.78;1647987;85;21082;-73
2022/09/16 09:27:12;;;;;;;8.53;3.67;;;;;;;20.27;64.13;99043.88;1636939;86;21151;-72
2022/09/16 09:30:20;;;;;;;5.40;2.95;;;;;;;20.26;62.69;99047.22;1640497;86;21071;-72
2022/09/16 09:33:21;;;;;;;5.30;3.17;;;;;;;20.20;62.58;99048.40;1629544;86;21027;-71
2022/09/16 09:36:15;;;;;;;8.45;3.37;;;;;;;20.12;62.58;99050.95;1626919;86;21051;-72
2022/09/16 09:38:53;;;;;;;7.12;3.33;;;;;;;20.06;62.07;99045.17;1627780;88;21059;-74
2022/09/16 09:41:56;;;;;;;4.87;2.83;;;;;;;20.02;62.49;99040.77;1623434;88;21487;-73
2022/09/16 09:44:45;;;;;;;6.37;3.00;;;;;;;20.00;62.37;99043.56;1623664;86;21063;-71
2022/09/16 09:47:22;;;;;;;5.97;3.17;;;;;;;19.99;62.36;99046.08;1633607;86;21098;-71
2022/09/16 09:49:57;;;;;;;6.22;3.10;;;;;;;20.03;62.23;99046.59;1633294;86;21193;-72
2022/09/16 09:52:49;;;;;;;5.05;3.00;;;;;;;20.09;62.35;99050.98;1633520;86;21178;-73
2022/09/16 09:55:21;;;;;;;3.98;2.35;;;;;;;20.15;62.58;99039.25;1644985;86;21102;-73
2022/09/16 09:58:18;;;;;;;4.22;2.83;;;;;;;20.20;61.81;99041.44;1633155;86;21082;-73
2022/09/16 10:00:51;;;;;;;5.12;3.20;;;;;;;20.20;61.64;99038.66;1634769;86;21035;-72
2022/09/16 10:03:21;;;;;;;11.22;4.35;;;;;;;20.23;60.44;99049.20;1633046;86;21063;-70
2022/09/16 10:05:50;;;;;;;7.15;3.42;;;;;;;20.22;60.76;99055.88;1633335;86;21588;-73
2022/09/16 10:08:46;;;;;;;5.80;3.08;;;;;;;20.26;60.23;99050.56;1644754;86;21107;-73
2022/09/16 10:11:24;;;;;;;5.78;2.90;;;;;;;20.29;59.85;99059.71;1633310;86;21205;-73
2022/09/16 10:13:59;;;;;;;4.35;2.55;;;;;;;20.33;59.59;99059.39;1633008;86;21143;-74
2022/09/16 10:16:38;;;;;;;4.65;2.33;;;;;;;20.29;57.88;99055.53;1633239;86;21099;-73
2022/09/16 10:19:22;;;;;;;6.37;2.70;;;;;;;20.19;57.79;99060.64;1642831;86;21471;-70
2022/09/16 10:21:56;;;;;;;6.37;2.75;;;;;;;20.08;58.21;99053.49;1644908;86;21083;-68
2022/09/16 10:24:32;;;;;;;5.47;2.87;;;;;;;20.00;58.50;99054.69;1627411;86;21079;-69
2022/09/16 10:27:05;;;;;;;5.28;2.83;;;;;;;19.94;58.60;99061.69;1644529;86;21058;-68
2022/09/16 10:29:35;;;;;;;5.58;2.72;;;;;;;19.88;58.65;99068.41;1609942;86;21094;-70
2022/09/16 10:32:06;;;;;;;6.62;2.90;;;;;;;19.82;58.71;99068.19;1649041;85;21047;-68
2022/09/16 10:34:39;;;;;;;3.60;2.77;;;;;;;19.76;58.74;99072.13;1652447;86;21063;-68
2022/09/16 10:37:17;;;;;;;5.58;2.77;;;;;;;19.72;58.36;99072.44;1633945;86;21673;-69
2022/09/16 10:39:56;;;;;;;6.97;3.10;;;;;;;19.65;59.05;99071.11;1633359;86;21147;-69
2022/09/16 10:42:27;;;;;;;6.78;2.85;;;;;;;19.61;59.54;99071.69;1645135;86;21133;-69
2022/09/16 10:45:04;;;;;;;6.25;2.95;;;;;;;19.59;59.59;99065.59;1614011;88;21039;-70
2022/09/16 10:47:35;;;;;;;8.03;4.62;;;;;;;19.58;59.97;99072.83;1614474;87;21110;-69
2022/09/16 10:50:05;;;;;;;5.47;3.33;;;;;;;19.58;60.39;99070.87;1645103;85;21317;-69
2022/09/16 10:52:46;;;;;;;6.00;3.60;;;;;;;19.58;60.19;99065.33;1614316;86;21055;-68
2022/09/16 10:55:28;;;;;;;6.92;3.17;;;;;;;19.54;60.29;99068.41;1646116;86;21106;-68
2022/09/16 10:58:18;;;;;;;5.65;3.37;;;;;;;19.54;60.65;99068.97;1640623;86;21141;-68
2022/09/16 11:01:08;;;;;;;6.00;3.15;;;;;;;19.53;61.03;99075.64;1627859;86;21019;-68
2022/09/16 11:04:04;;;;;;;6.03;2.80;;;;;;;19.55;60.98;99070.63;1636867;86;21475;-69
2022/09/16 11:06:59;;;;;;;6.77;3.20;;;;;;;19.55;60.89;99066.46;1617918;87;21011;-68
2022/09/16 11:09:46;;;;;;;4.03;2.85;;;;;;;19.59;60.95;99053.65;1633650;86;21106;-68
2022/09/16 11:12:54;;;;;;;4.58;3.05;;;;;;;19.65;59.32;99059.44;1635852;86;21513;-68
2022/09/16 11:15:52;;;;;;;9.18;4.28;;;;;;;19.75;59.19;99057.14;1643677;86;21094;-70
2022/09/16 11:18:39;;;;;;;6.83;3.20;;;;;;;19.81;59.13;99062.36;1639880;86;21525;-68
2022/09/16 11:21:31;;;;;;;6.10;3.33;;;;;;;19.87;59.23;99061.20;1578565;86;21153;-68
2022/09/16 11:24:40;;;;;;;6.17;3.60;;;;;;;19.89;59.56;99068.69;1633633;86;21098;-67
2022/09/16 11:27:48;;;;;;;5.45;3.10;;;;;;;19.92;59.43;99070.05;1633432;86;21027;-69
2022/09/16 11:30:21;;;;;;;6.22;3.60;;;;;;;19.90;59.30;99062.00;1632721;88;21545;-68
2022/09/16 11:33:27;;;;;;;5.45;3.30;;;;;;;19.91;59.66;99069.78;1633429;88;21118;-70
2022/09/16 11:36:11;;;;;;;6.67;3.37;;;;;;;19.92;59.08;99070.87;1591164;89;21110;-69
2022/09/16 11:38:48;;;;;;;4.62;3.25;;;;;;;19.95;59.22;99069.47;1611708;86;21071;-68
2022/09/16 11:41:35;;;;;;;;;;;;;;;19.99;58.83;99069.71;1618314;88;21102;-69
2022/09/16 11:44:27;;;;;;;9.40;3.62;;;;;;;19.99;58.22;99066.94;1531531;88;20175;-68
2022/09/16 11:47:20;;;;;;;6.22;3.37;;;;;;;19.94;58.10;99060.30;1588912;89;21063;-68
2022/09/16 11:50:07;;;;;;;6.12;3.12;;;;;;;19.94;58.15;99068.64;1604592;89;21050;-67
2022/09/16 11:53:14;;;;;;;5.53;3.33;;;;;;;19.96;57.98;99069.73;1625007;86;21078;-68
2022/09/16 11:56:23;;;;;;;8.78;3.60;;;;;;;19.96;58.13;99071.13;1609332;87;21075;-68
2022/09/16 11:58:59;;;;;;;6.92;3.50;;;;;;;19.95;58.26;99072.25;1640738;86;21059;-69
2022/09/16 12:01:32;;;;;;;;;;;;;;;19.95;58.39;99075.86;1639455;86;21106;-69
2022/09/16 12:04:22;;;;;;;4.87;2.83;;;;;;;19.97;56.75;99074.17;1652449;86;20590;-69
2022/09/16 12:07:11;;;;;;;3.55;2.60;;;;;;;19.98;56.55;99080.56;1624399;88;21104;-69
2022/09/16 12:10:08;;;;;;;7.40;2.92;;;;;;;20.00;56.01;99081.11;1633515;86;21126;-68
2022/09/16 12:12:43;;;;;;;6.60;2.85;;;;;;;20.01;55.97;99088.32;1633327;86;21142;-69
2022/09/16 12:15:25;;;;;;;6.35;2.45;;;;;;;20.03;55.54;99078.57;1633424;86;21058;-69
2022/09/16 12:18:00;;;;;;;5.30;2.77;;;;;;;20.05;56.28;99085.23;1637920;86;21143;-69
2022/09/16 12:20:34;;;;;;;8.43;3.02;;;;;;;20.08;56.58;99086.03;1638943;86;21090;-69